Ana Sayfa
METAR-TAF:

METAR-TAF

Havaalanları :

Cox Field

Paris, Teksas, Amerika Birleşik Devletleri

Enlem: 33-38N, Boylam: 095-27W, yükseklik: 167 m

Güncel hava durumu gözlemi

Rapor saat 18:56 UTC de 27 dakika önce yapıldı.
Rüzgar batı/güneybatıdan 19 kt ve 28 kt'a kadar ani rüzgarlar
Sıcaklık 14°C
Nem 58%
Basınç 1006 hPa
Görüş mesafesi: 16.1 km
3900 ft yükseklikte çok bulutlu

METAR: KPRX 241856Z AUTO 25019G28KT 10SM OVC039 14/06 A2970 RMK AO2 PK WND 25029/1802 SLP073 T01440056

Saat: 13:23 (19:23 UTC)


TAF: eksik

4.000'den fazla havaalanı için hava durumu gözlemleri ve tahminleri (METAR ve TAF raporları).

Kullanılabilir istasyonlar harita üzerinde sarı ve kırmızı noktalarla gösterilir.

İstasyonun adını görmek için fareyi noktanın üzerinde gezdirin.

Sonrasında hava gözlem ve tahminlerini görmek için tıklayın.

Haritayı değiştirmek için: yaklaştırmak için siyah artı işaretli yeşil düğmeye ve uzaklaştırmak için de eksi işaretli düğmeye hızla tıklayın; bitişik haritalar için yeşil okları kullanın.


METAR-TAF: